MiSS Gill — WDD3010 — position and weather

sailwx.info

Track history (hours):
 
Tides and Currents Weather Stations Pressure Air Temp Water Temp Dewpoint Dewpoint Depression Visibility Wind Speed Wind Dir Waves Ship Positions

MiSS Gill

Owner: Willoughgy Spit LLC, Norfolk, VA. More information available from US FCC via Universal Licensing System and Coast Guard Vessel Documentation Center.

Last reported at 2018-May-17 01:35 UTC. Time now 2018-May-20 12:08 UTC.
Position N 36°50' W 076°18'.

Length 33 m; draft 4.6 m.

Type: Towing. MMSI: 367122680.

Date/timePositionNaut miles runAvg speedWind from/ knotsBaromVisibWave heightAir tempDewpointWater temp
2018-May-17 01:35N 36°50' W 076°18'1 6.3
2018-May-17 01:30N 36°50' W 076°18'2 3.4
2018-May-17 00:58N 36°48' W 076°18'0 0.2
2018-May-17 00:30N 36°48' W 076°18'3 5.2
2018-May-17 00:00N 36°51' W 076°17'0 0.3
2018-May-16 22:47N 36°51' W 076°18'  
2018-May-14 08:48N 36°50' W 076°18'2 5.6
2018-May-14 08:31N 36°49' W 076°17'0 0.5
2018-May-14 07:57N 36°48' W 076°17'0 0.0
2018-May-14 07:27N 36°48' W 076°17'0 0.0
2018-May-14 06:54N 36°48' W 076°17'0 0.0
2018-May-14 06:18N 36°48' W 076°17'0 1.2
2018-May-14 06:00N 36°49' W 076°17'2 0.1
2018-May-13 10:31N 36°51' W 076°18'1 0.0
2018-May-12 11:56N 36°50' W 076°16'3 0.1
2018-May-10 08:10N 36°51' W 076°20'0 0.0
2018-May-10 07:45N 36°51' W 076°20'0 0.0
2018-May-10 07:25N 36°51' W 076°20'  
Track history (hours):
 
Tides and Currents Weather Stations Pressure Air Temp Water Temp Dewpoint Dewpoint Depression Visibility Wind Speed Wind Dir Waves Ship Positions

MiSS Gill

Owner: Willoughgy Spit LLC, Norfolk, VA. More information available from US FCC via Universal Licensing System and Coast Guard Vessel Documentation Center.

Last reported at 2018-May-17 01:35 UTC. Time now 2018-May-20 12:08 UTC.
Position N 36°50' W 076°18'.

Length 33 m; draft 4.6 m.

Type: Towing. MMSI: 367122680.

Date/timePositionNaut miles runAvg speedWind from/ knotsBaromVisibWave heightAir tempDewpointWater temp
2018-May-17 01:35N 36°50' W 076°18'1 6.3
2018-May-17 01:30N 36°50' W 076°18'2 3.4
2018-May-17 00:58N 36°48' W 076°18'0 0.2
2018-May-17 00:30N 36°48' W 076°18'3 5.2
2018-May-17 00:00N 36°51' W 076°17'0 0.3
2018-May-16 22:47N 36°51' W 076°18'  
2018-May-14 08:48N 36°50' W 076°18'2 5.6
2018-May-14 08:31N 36°49' W 076°17'0 0.5
2018-May-14 07:57N 36°48' W 076°17'0 0.0
2018-May-14 07:27N 36°48' W 076°17'0 0.0
2018-May-14 06:54N 36°48' W 076°17'0 0.0
2018-May-14 06:18N 36°48' W 076°17'0 1.2
2018-May-14 06:00N 36°49' W 076°17'2 0.1
2018-May-13 10:31N 36°51' W 076°18'1 0.0
2018-May-12 11:56N 36°50' W 076°16'3 0.1
2018-May-10 08:10N 36°51' W 076°20'0 0.0
2018-May-10 07:45N 36°51' W 076°20'0 0.0
2018-May-10 07:25N 36°51' W 076°20'  

Dump ship's entire track history